McGees Mills, Pennsylvania
Current Conditions -  °F | °C
As of 11:54 PM on Saturday 20 Dec 2014 (Local Time) from KFIG Reporting Station
Overcast Overcast  
Wind Chill: 26°   Ceiling: 1700
Heat Index: 26°   Visibility: 10mi
Dew Point: 20°   Wind: 0mph
Humidity: 78%   Direction: NA
Pressure: 30.23"   Gusts: NA
Location:  40.9103°N, 78.7273°W
Report Text: KFIG 210454Z AUTO 00000KT 10SM OVC017 M03/M07 A3023 RMK AO2 SLP256 T10331067 410171050
Loading
Personal Weather Stations






























Interactive Weather Map New forecast layout! Learn more

10-Day Weather Forecast

Advertisements
Track Severe Weather on mobile